Time;durP1;ratioP1;P1;durP2;ratioP2;P2;SDS_P1;SDS_P2;PMS_P1;PMS_P2;Temp;Humidity;BMP_temperature;BMP_pressure;BME280_temperature;BME280_humidity;BME280_pressure;Samples;Min_cycle;Max_cycle;Signal;HPM_P1;HPM_P2
2022/03/01 00:00:41;;;;;;;3.85;2.30;;;;;;;;;;1797964;79;21076;-74
2022/03/01 00:03:07;;;;;;;4.12;2.45;;;;;;;;;;1757510;80;20986;-73
2022/03/01 00:05:33;;;;;;;4.22;2.50;;;;;;;;;;1778656;81;21025;-71
2022/03/01 00:07:59;;;;;;;4.20;2.62;;;;;;;;;;1778283;81;21048;-71
2022/03/01 00:10:26;;;;;;;3.47;2.20;;;;;;;;;;1773861;79;21086;-71
2022/03/01 00:12:52;;;;;;;7.05;3.02;;;;;;;;;;1762556;80;21043;-71
2022/03/01 00:15:18;;;;;;;3.33;2.10;;;;;;;;;;1767780;80;21489;-71
2022/03/01 00:17:44;;;;;;;3.12;2.10;;;;;;;;;;1771989;79;21049;-72
2022/03/01 00:20:11;;;;;;;6.92;2.52;;;;;;;;;;1763546;81;21596;-71
2022/03/01 00:22:37;;;;;;;3.83;2.25;;;;;;;;;;1763514;81;21614;-70
2022/03/01 00:25:03;;;;;;;5.53;2.37;;;;;;;;;;1808624;79;21051;-71
2022/03/01 00:27:29;;;;;;;3.90;2.67;;;;;;;;;;1797017;79;21013;-71
2022/03/01 00:29:56;;;;;;;3.72;2.20;;;;;;;;;;1752416;79;21503;-71
2022/03/01 00:32:22;;;;;;;5.00;2.00;;;;;;;;;;1807343;79;21060;-72
2022/03/01 00:34:48;;;;;;;4.15;2.60;;;;;;;;;;1777900;79;21109;-70
2022/03/01 00:37:14;;;;;;;3.17;2.27;;;;;;;;;;1812433;79;21013;-71
2022/03/01 00:39:40;;;;;;;4.30;2.08;;;;;;;;;;1784765;79;21543;-71
2022/03/01 00:42:08;;;;;;;4.42;2.40;;;;;;;;;;1806165;79;21076;-71
2022/03/01 00:44:34;;;;;;;5.17;2.47;;;;;;;;;;1766351;79;20977;-71
2022/03/01 00:47:00;;;;;;;3.98;2.47;;;;;;;;;;1785484;79;21045;-71
2022/03/01 00:49:25;;;;;;;3.72;2.25;;;;;;;;;;1759633;81;21080;-71
2022/03/01 00:51:51;;;;;;;3.60;2.58;;;;;;;;;;1741612;82;21012;-73
2022/03/01 00:54:17;;;;;;;4.87;2.15;;;;;;;;;;1750631;79;21492;-74
2022/03/01 00:56:44;;;;;;;3.37;2.25;;;;;;;;;;1772024;81;21128;-73
2022/03/01 00:59:10;;;;;;;4.10;2.05;;;;;;;;;;1773244;81;20984;-72
2022/03/01 01:01:36;;;;;;;4.53;2.47;;;;;;;;;;1756096;81;22112;-73
2022/03/01 01:04:02;;;;;;;4.05;2.42;;;;;;;;;;1779648;79;21144;-73
2022/03/01 01:06:28;;;;;;;4.08;2.25;;;;;;;;;;1742203;81;21021;-73
2022/03/01 01:08:55;;;;;;;3.85;2.55;;;;;;;;;;1763407;81;21134;-74
2022/03/01 01:11:20;;;;;;;3.12;1.90;;;;;;;;;;1760461;79;21675;-73
2022/03/01 01:13:48;;;;;;;2.50;2.02;;;;;;;;;;1761749;81;21535;-73
2022/03/01 01:16:14;;;;;;;3.62;2.33;;;;;;;;;;1768157;81;21045;-72
2022/03/01 01:18:43;;;;;;;5.22;3.00;;;;;;;;;;1757641;81;21056;-72
2022/03/01 01:21:11;;;;;;;4.62;2.30;;;;;;;;;;1713870;82;21052;-72
2022/03/01 01:23:37;;;;;;;5.45;2.75;;;;;;;;;;1726474;82;21005;-73
2022/03/01 01:26:03;;;;;;;3.20;2.22;;;;;;;;;;1789964;79;20937;-72
2022/03/01 01:28:29;;;;;;;3.87;2.30;;;;;;;;;;1757517;80;22264;-73
2022/03/01 01:30:55;;;;;;;3.10;2.33;;;;;;;;;;1778611;79;21503;-72
2022/03/01 01:33:21;;;;;;;5.33;2.35;;;;;;;;;;1760177;79;21027;-72
2022/03/01 01:35:48;;;;;;;2.55;1.92;;;;;;;;;;1777924;79;21008;-70
2022/03/01 01:38:14;;;;;;;4.35;2.25;;;;;;;;;;1786674;79;21045;-71
2022/03/01 01:40:40;;;;;;;2.62;2.00;;;;;;;;;;1749356;82;21009;-72
2022/03/01 01:43:07;;;;;;;4.00;2.20;;;;;;;;;;1734914;82;21044;-72
2022/03/01 01:45:32;;;;;;;3.98;2.45;;;;;;;;;;1770849;79;20985;-71
2022/03/01 01:47:59;;;;;;;4.17;2.25;;;;;;;;;;1790640;79;20985;-72
2022/03/01 01:50:25;;;;;;;3.15;2.10;;;;;;;;;;1759181;80;20977;-72
2022/03/01 01:52:51;;;;;;;4.40;3.12;;;;;;;;;;1747658;79;21004;-72
2022/03/01 01:55:17;;;;;;;4.85;2.72;;;;;;;;;;1801377;79;21006;-72
2022/03/01 01:57:44;;;;;;;3.98;2.02;;;;;;;;;;1780308;79;21051;-72
2022/03/01 02:00:11;;;;;;;3.77;2.12;;;;;;;;;;1804222;79;21049;-71
2022/03/01 02:05:26;;;;;;;3.30;2.20;;;;;;;;;;1674184;83;21179;-70
2022/03/01 02:07:52;;;;;;;3.83;2.08;;;;;;;;;;1683335;83;21058;-70
2022/03/01 02:10:18;;;;;;;4.55;2.33;;;;;;;;;;1654081;85;22112;-70
2022/03/01 02:12:44;;;;;;;3.83;2.40;;;;;;;;;;1692495;83;21509;-72
2022/03/01 02:15:10;;;;;;;3.35;2.30;;;;;;;;;;1654585;85;21037;-73
2022/03/01 02:17:39;;;;;;;4.87;2.20;;;;;;;;;;1690671;83;21520;-73
2022/03/01 02:20:06;;;;;;;4.83;2.58;;;;;;;;;;1693818;83;21504;-74
2022/03/01 02:22:34;;;;;;;6.08;2.75;;;;;;;;;;1693143;83;21072;-73
2022/03/01 02:25:01;;;;;;;3.90;2.17;;;;;;;;;;1689755;84;21037;-73
2022/03/01 02:27:27;;;;;;;4.97;2.30;;;;;;;;;;1657478;83;21049;-73
2022/03/01 02:29:53;;;;;;;5.40;2.77;;;;;;;;;;1715374;83;21116;-73
2022/03/01 02:32:19;;;;;;;5.28;2.75;;;;;;;;;;1705231;83;21008;-73
2022/03/01 02:34:47;;;;;;;5.20;2.40;;;;;;;;;;1701391;83;21572;-73
2022/03/01 02:37:13;;;;;;;3.62;2.42;;;;;;;;;;1713236;83;21060;-72
2022/03/01 02:39:39;;;;;;;4.50;2.45;;;;;;;;;;1721875;83;21120;-72
2022/03/01 02:42:05;;;;;;;3.45;2.33;;;;;;;;;;1703583;83;21190;-72
2022/03/01 02:44:30;;;;;;;4.62;2.70;;;;;;;;;;1682862;85;21049;-72
2022/03/01 02:46:57;;;;;;;5.40;2.72;;;;;;;;;;1677550;85;21571;-72
2022/03/01 02:49:22;;;;;;;5.90;3.05;;;;;;;;;;1643384;87;21125;-73
2022/03/01 02:51:48;;;;;;;6.45;2.92;;;;;;;;;;1642828;87;21111;-73
2022/03/01 02:54:14;;;;;;;3.85;2.60;;;;;;;;;;1684936;85;21464;-73
2022/03/01 02:56:40;;;;;;;5.37;2.70;;;;;;;;;;1663305;86;21640;-72
2022/03/01 02:59:11;;;;;;;4.28;2.40;;;;;;;;;;1655154;85;21017;-73
2022/03/01 03:01:34;;;;;;;4.40;2.67;;;;;;;;;;1638384;85;21647;-73
2022/03/01 03:04:00;;;;;;;4.87;2.80;;;;;;;;;;1643855;85;21132;-72
2022/03/01 03:06:27;;;;;;;5.05;2.42;;;;;;;;;;1695462;84;21014;-72
2022/03/01 03:08:53;;;;;;;7.83;3.27;;;;;;;;;;1681999;84;21080;-72
2022/03/01 03:11:19;;;;;;;5.05;3.05;;;;;;;;;;1667869;86;21129;-73
2022/03/01 03:13:45;;;;;;;3.80;2.62;;;;;;;;;;1668733;86;21115;-72
2022/03/01 03:16:11;;;;;;;3.90;2.27;;;;;;;;;;1652711;84;21060;-71
2022/03/01 03:18:39;;;;;;;5.08;2.77;;;;;;;;;;1678824;84;21093;-72
2022/03/01 03:21:05;;;;;;;7.10;2.95;;;;;;;;;;1638967;86;21136;-71
2022/03/01 03:23:32;;;;;;;6.50;2.98;;;;;;;;;;1669193;86;21037;-72
2022/03/01 03:25:58;;;;;;;5.70;2.77;;;;;;;;;;1672297;84;21028;-72
2022/03/01 03:28:23;;;;;;;3.33;2.40;;;;;;;;;;1678188;85;20985;-70
2022/03/01 03:30:49;;;;;;;5.60;2.67;;;;;;;;;;1680902;83;21563;-71
2022/03/01 03:33:16;;;;;;;6.22;2.72;;;;;;;;;;1675405;84;21053;-73
2022/03/01 03:35:43;;;;;;;5.70;2.90;;;;;;;;;;1689616;83;21032;-73
2022/03/01 03:38:09;;;;;;;4.67;2.52;;;;;;;;;;1693585;84;21068;-73
2022/03/01 03:40:35;;;;;;;6.10;2.70;;;;;;;;;;1684655;84;21017;-72
2022/03/01 03:43:01;;;;;;;5.95;3.10;;;;;;;;;;1665885;84;21062;-72
2022/03/01 03:45:27;;;;;;;5.87;2.98;;;;;;;;;;1678207;83;21083;-73
2022/03/01 03:47:53;;;;;;;6.05;2.85;;;;;;;;;;1679425;85;21035;-74
2022/03/01 03:50:19;;;;;;;6.05;2.87;;;;;;;;;;1654039;84;21046;-73
2022/03/01 03:52:45;;;;;;;3.25;2.40;;;;;;;;;;1649637;84;21040;-73
2022/03/01 03:55:11;;;;;;;5.25;3.17;;;;;;;;;;1705921;82;21012;-73
2022/03/01 03:57:37;;;;;;;5.25;2.70;;;;;;;;;;1683956;85;21088;-72
2022/03/01 04:00:05;;;;;;;4.65;2.70;;;;;;;;;;1705654;83;21055;-71
2022/03/01 04:02:33;;;;;;;6.78;2.95;;;;;;;;;;1719222;82;21083;-71
2022/03/01 04:04:59;;;;;;;5.08;2.77;;;;;;;;;;1719469;82;21702;-70
2022/03/01 04:07:25;;;;;;;5.53;2.60;;;;;;;;;;1707437;84;21101;-71
2022/03/01 04:09:51;;;;;;;3.77;2.42;;;;;;;;;;1706646;84;21021;-71
2022/03/01 04:12:17;;;;;;;6.10;3.12;;;;;;;;;;1705929;84;21069;-70
2022/03/01 04:14:43;;;;;;;6.87;2.98;;;;;;;;;;1703896;84;20982;-70
2022/03/01 04:17:09;;;;;;;3.87;2.60;;;;;;;;;;1684476;84;21066;-71
2022/03/01 04:19:36;;;;;;;4.60;2.52;;;;;;;;;;1705568;84;21081;-71
2022/03/01 04:22:02;;;;;;;3.50;2.50;;;;;;;;;;1676189;84;22167;-71
2022/03/01 04:24:28;;;;;;;5.03;2.85;;;;;;;;;;1698080;84;21468;-71
2022/03/01 04:26:54;;;;;;;3.77;2.47;;;;;;;;;;1715595;84;21068;-70
2022/03/01 04:29:21;;;;;;;5.95;3.10;;;;;;;;;;1686979;84;21312;-71
2022/03/01 04:31:47;;;;;;;4.40;2.75;;;;;;;;;;1699134;84;21096;-70
2022/03/01 04:34:12;;;;;;;4.33;2.47;;;;;;;;;;1695151;84;21652;-71
2022/03/01 04:36:39;;;;;;;6.12;3.50;;;;;;;;;;1705669;84;21548;-71
2022/03/01 04:39:04;;;;;;;5.17;3.20;;;;;;;;;;1686977;84;21096;-69
2022/03/01 04:41:31;;;;;;;5.58;3.10;;;;;;;;;;1705304;84;21069;-71
2022/03/01 04:43:58;;;;;;;4.30;2.70;;;;;;;;;;1704290;84;21564;-71
2022/03/01 04:46:24;;;;;;;5.50;3.30;;;;;;;;;;1704334;84;20998;-73
2022/03/01 04:48:53;;;;;;;4.62;2.58;;;;;;;;;;1714876;84;21010;-73
2022/03/01 04:51:21;;;;;;;4.42;2.95;;;;;;;;;;1709017;83;21117;-73
2022/03/01 04:53:47;;;;;;;3.92;2.33;;;;;;;;;;1662167;86;21046;-72
2022/03/01 04:56:13;;;;;;;3.52;2.30;;;;;;;;;;1655690;87;21077;-73
2022/03/01 04:58:39;;;;;;;3.02;2.15;;;;;;;;;;1666929;85;21109;-72
2022/03/01 05:01:05;;;;;;;4.28;2.40;;;;;;;;;;1649070;85;21647;-72
2022/03/01 05:03:31;;;;;;;3.72;2.70;;;;;;;;;;1674139;84;21132;-72
2022/03/01 05:05:58;;;;;;;6.35;2.70;;;;;;;;;;1694713;84;21077;-72
2022/03/01 05:08:26;;;;;;;3.62;2.20;;;;;;;;;;1682931;85;21027;-72
2022/03/01 05:10:52;;;;;;;5.10;2.58;;;;;;;;;;1668824;85;21067;-71
2022/03/01 05:13:18;;;;;;;6.58;2.55;;;;;;;;;;1665229;85;21001;-72
2022/03/01 05:15:44;;;;;;;5.15;2.95;;;;;;;;;;1644914;85;21081;-72
2022/03/01 05:18:10;;;;;;;7.35;2.65;;;;;;;;;;1690886;85;20971;-72
2022/03/01 05:20:36;;;;;;;4.95;2.58;;;;;;;;;;1684249;85;21066;-72
2022/03/01 05:23:02;;;;;;;6.20;2.95;;;;;;;;;;1660407;86;21037;-72
2022/03/01 05:25:28;;;;;;;3.08;2.20;;;;;;;;;;1643357;85;21102;-72
2022/03/01 05:27:54;;;;;;;4.58;2.83;;;;;;;;;;1639214;86;21017;-73
2022/03/01 05:30:20;;;;;;;4.30;2.72;;;;;;;;;;1672301;85;21009;-73
2022/03/01 05:32:46;;;;;;;4.70;2.62;;;;;;;;;;1660942;85;21049;-73
2022/03/01 05:35:14;;;;;;;3.83;2.20;;;;;;;;;;1637043;86;21572;-72
2022/03/01 05:37:41;;;;;;;4.33;2.45;;;;;;;;;;1661359;85;21112;-73
2022/03/01 05:40:09;;;;;;;5.05;2.55;;;;;;;;;;1661029;85;21031;-73
2022/03/01 05:42:35;;;;;;;4.35;2.80;;;;;;;;;;1681827;85;21082;-71
2022/03/01 05:45:01;;;;;;;4.60;2.92;;;;;;;;;;1719618;83;21634;-71
2022/03/01 05:47:27;;;;;;;6.97;3.17;;;;;;;;;;1678471;84;21522;-70
2022/03/01 05:49:53;;;;;;;5.12;2.67;;;;;;;;;;1659809;86;21080;-71
2022/03/01 05:52:20;;;;;;;3.95;2.40;;;;;;;;;;1660226;86;21534;-72
2022/03/01 05:54:46;;;;;;;5.45;2.42;;;;;;;;;;1703242;83;21016;-71
2022/03/01 05:57:11;;;;;;;3.65;2.35;;;;;;;;;;1711569;83;21045;-70
2022/03/01 05:59:37;;;;;;;5.58;3.00;;;;;;;;;;1684123;83;21006;-71
2022/03/01 06:02:03;;;;;;;4.47;2.42;;;;;;;;;;1680360;84;21003;-71
2022/03/01 06:04:29;;;;;;;3.10;2.22;;;;;;;;;;1674591;84;21185;-71
2022/03/01 06:06:55;;;;;;;3.12;2.20;;;;;;;;;;1684934;84;21077;-71
2022/03/01 06:09:23;;;;;;;3.83;2.40;;;;;;;;;;1669264;85;21136;-70
2022/03/01 06:11:49;;;;;;;4.35;2.60;;;;;;;;;;1708365;83;21087;-72
2022/03/01 06:14:16;;;;;;;4.05;2.50;;;;;;;;;;1711008;83;21544;-72
2022/03/01 06:16:44;;;;;;;4.22;2.50;;;;;;;;;;1698840;83;21580;-72
2022/03/01 06:19:13;;;;;;;3.08;2.12;;;;;;;;;;1708117;83;21049;-72
2022/03/01 06:21:41;;;;;;;5.35;3.10;;;;;;;;;;1706400;83;21148;-72
2022/03/01 06:24:07;;;;;;;4.10;2.45;;;;;;;;;;1670087;84;21606;-72
2022/03/01 06:28:38;;;;;;;4.40;2.50;;;;;;;;;;1801130;79;22856;-71
2022/03/01 06:31:04;;;;;;;5.95;2.72;;;;;;;;;;1761266;80;21182;-72
2022/03/01 06:33:30;;;;;;;4.95;2.70;;;;;;;;;;1758448;81;21012;-72
2022/03/01 06:35:56;;;;;;;2.90;2.15;;;;;;;;;;1754843;80;21108;-71
2022/03/01 06:38:22;;;;;;;6.17;2.80;;;;;;;;;;1764111;80;21046;-71
2022/03/01 06:40:51;;;;;;;6.67;2.90;;;;;;;;;;1758247;81;21001;-71
2022/03/01 06:43:16;;;;;;;5.92;2.70;;;;;;;;;;1756723;81;21005;-70
2022/03/01 06:45:42;;;;;;;6.87;3.35;;;;;;;;;;1758517;81;21143;-71
2022/03/01 06:48:09;;;;;;;4.75;2.45;;;;;;;;;;1763786;80;21071;-72
2022/03/01 06:50:36;;;;;;;5.75;2.65;;;;;;;;;;1735875;81;21001;-71
2022/03/01 06:53:03;;;;;;;3.25;2.20;;;;;;;;;;1758844;81;21397;-71
2022/03/01 06:55:29;;;;;;;4.40;2.75;;;;;;;;;;1740887;81;21048;-71
2022/03/01 06:57:57;;;;;;;4.55;2.60;;;;;;;;;;1763391;80;21000;-71
2022/03/01 07:00:24;;;;;;;5.95;2.90;;;;;;;;;;1757263;80;21532;-71
2022/03/01 07:02:51;;;;;;;6.15;3.08;;;;;;;;;;1751962;81;21076;-72
2022/03/01 07:05:17;;;;;;;4.35;2.75;;;;;;;;;;1756109;80;21544;-71
2022/03/01 07:07:44;;;;;;;4.20;2.80;;;;;;;;;;1755790;81;21072;-71
2022/03/01 07:10:12;;;;;;;5.80;2.58;;;;;;;;;;1738439;81;21501;-71
2022/03/01 07:12:42;;;;;;;5.72;2.77;;;;;;;;;;1761392;81;21484;-72
2022/03/01 07:15:08;;;;;;;5.37;3.12;;;;;;;;;;1761976;81;21012;-72
2022/03/01 07:17:35;;;;;;;4.60;2.87;;;;;;;;;;1759869;81;21095;-72
2022/03/01 07:20:02;;;;;;;5.83;2.98;;;;;;;;;;1755127;81;21071;-72
2022/03/01 07:22:29;;;;;;;6.45;3.00;;;;;;;;;;1726824;83;21044;-73
2022/03/01 07:24:54;;;;;;;4.58;2.80;;;;;;;;;;1727444;83;21021;-73
2022/03/01 07:27:21;;;;;;;5.65;2.80;;;;;;;;;;1733408;81;21036;-72
2022/03/01 07:29:47;;;;;;;7.65;3.22;;;;;;;;;;1727361;83;21100;-73
2022/03/01 07:32:13;;;;;;;6.10;3.30;;;;;;;;;;1729163;81;21018;-72
2022/03/01 07:34:39;;;;;;;7.58;3.92;;;;;;;;;;1715607;82;21005;-73
2022/03/01 07:37:07;;;;;;;5.25;2.77;;;;;;;;;;1741393;81;21686;-72
2022/03/01 07:39:33;;;;;;;4.40;2.60;;;;;;;;;;1734716;81;21052;-73
2022/03/01 07:42:00;;;;;;;4.90;3.05;;;;;;;;;;1728576;81;21041;-72
2022/03/01 07:44:27;;;;;;;4.85;2.85;;;;;;;;;;1737515;81;21065;-73
2022/03/01 07:46:53;;;;;;;5.45;3.30;;;;;;;;;;1729320;81;21043;-71
2022/03/01 07:49:19;;;;;;;5.75;2.80;;;;;;;;;;1742100;81;21318;-71
2022/03/01 07:51:45;;;;;;;5.37;3.12;;;;;;;;;;1745950;81;21069;-72
2022/03/01 07:54:11;;;;;;;4.53;2.70;;;;;;;;;;1730125;81;21038;-72
2022/03/01 07:56:39;;;;;;;5.00;3.12;;;;;;;;;;1729156;81;21087;-73
2022/03/01 07:59:07;;;;;;;4.90;3.08;;;;;;;;;;1731281;81;21056;-70
2022/03/01 08:01:34;;;;;;;6.47;3.55;;;;;;;;;;1728423;81;21055;-72
2022/03/01 08:04:00;;;;;;;6.15;3.42;;;;;;;;;;1742975;81;21048;-72
2022/03/01 08:06:26;;;;;;;5.45;3.65;;;;;;;;;;1729936;81;20998;-73
2022/03/01 08:08:53;;;;;;;8.18;2.98;;;;;;;;;;1729639;82;21111;-71
2022/03/01 08:11:19;;;;;;;5.67;3.33;;;;;;;;;;1712283;83;21519;-72
2022/03/01 08:13:46;;;;;;;5.62;3.47;;;;;;;;;;1730553;83;21559;-72
2022/03/01 08:16:13;;;;;;;5.42;2.90;;;;;;;;;;1714236;83;21017;-74
2022/03/01 08:18:40;;;;;;;6.05;3.08;;;;;;;;;;1710795;83;21534;-75
2022/03/01 08:21:07;;;;;;;5.05;3.12;;;;;;;;;;1727066;81;21037;-71
2022/03/01 08:23:33;;;;;;;6.10;3.15;;;;;;;;;;1736664;81;21465;-71
2022/03/01 08:26:04;;;;;;;5.45;3.00;;;;;;;;;;1715734;83;21033;-72
2022/03/01 08:28:30;;;;;;;4.95;3.30;;;;;;;;;;1682399;84;21568;-72
2022/03/01 08:30:56;;;;;;;5.25;3.80;;;;;;;;;;1713084;83;21044;-72
2022/03/01 08:33:24;;;;;;;7.28;3.65;;;;;;;;;;1713539;83;21060;-72
2022/03/01 08:35:50;;;;;;;5.90;3.67;;;;;;;;;;1715124;83;21002;-71
2022/03/01 08:38:16;;;;;;;6.10;3.25;;;;;;;;;;1712080;82;21076;-72
2022/03/01 08:40:42;;;;;;;6.95;3.30;;;;;;;;;;1723435;82;22481;-72
2022/03/01 08:43:09;;;;;;;7.22;3.85;;;;;;;;;;1713451;83;21028;-72
2022/03/01 08:45:35;;;;;;;5.28;2.87;;;;;;;;;;1713299;82;21116;-73
2022/03/01 08:48:01;;;;;;;5.55;3.08;;;;;;;;;;1714032;83;21590;-71
2022/03/01 08:50:27;;;;;;;5.33;2.98;;;;;;;;;;1720322;82;21048;-72
2022/03/01 08:52:53;;;;;;;5.85;2.98;;;;;;;;;;1677166;85;21083;-72
2022/03/01 08:55:20;;;;;;;6.10;3.60;;;;;;;;;;1714282;83;21571;-72
2022/03/01 08:57:46;;;;;;;8.40;3.90;;;;;;;;;;1715539;83;21532;-73
2022/03/01 09:00:14;;;;;;;5.72;3.80;;;;;;;;;;1716371;83;21063;-73
2022/03/01 09:02:40;;;;;;;6.08;3.35;;;;;;;;;;1680832;85;21037;-70
2022/03/01 09:05:09;;;;;;;6.60;3.47;;;;;;;;;;1717726;83;21104;-72
2022/03/01 09:07:35;;;;;;;4.67;3.02;;;;;;;;;;1714341;82;21022;-72
2022/03/01 09:10:03;;;;;;;4.97;3.12;;;;;;;;;;1723909;82;21520;-73
2022/03/01 09:12:30;;;;;;;5.30;3.35;;;;;;;;;;1709423;82;21529;-74
2022/03/01 09:14:56;;;;;;;4.85;2.83;;;;;;;;;;1715262;82;20961;-72
2022/03/01 09:17:22;;;;;;;7.33;3.35;;;;;;;;;;1722968;83;21097;-73
2022/03/01 09:19:47;;;;;;;6.15;3.52;;;;;;;;;;1723561;82;20995;-74
2022/03/01 09:22:13;;;;;;;5.97;3.27;;;;;;;;;;1717457;83;21111;-75
2022/03/01 09:24:40;;;;;;;4.95;3.10;;;;;;;;;;1679016;85;21036;-73
2022/03/01 09:27:06;;;;;;;6.17;3.47;;;;;;;;;;1713698;83;21047;-73
2022/03/01 09:29:33;;;;;;;6.28;3.80;;;;;;;;;;1738712;81;21546;-74
2022/03/01 09:32:03;;;;;;;5.92;3.33;;;;;;;;;;1739739;81;20977;-72
2022/03/01 09:34:29;;;;;;;6.67;3.72;;;;;;;;;;1699929;83;21575;-73
2022/03/01 09:36:55;;;;;;;5.65;3.20;;;;;;;;;;1667898;85;21132;-74
2022/03/01 09:39:21;;;;;;;8.05;3.60;;;;;;;;;;1706116;83;21040;-72
2022/03/01 09:41:48;;;;;;;6.62;3.22;;;;;;;;;;1666082;85;21644;-73
2022/03/01 09:44:15;;;;;;;4.70;2.90;;;;;;;;;;1678638;84;21027;-74
2022/03/01 09:46:41;;;;;;;6.20;3.20;;;;;;;;;;1671286;85;21145;-74
2022/03/01 09:49:07;;;;;;;6.28;3.50;;;;;;;;;;1670056;85;21673;-73
2022/03/01 09:51:34;;;;;;;5.92;3.70;;;;;;;;;;1672209;85;21107;-72
2022/03/01 09:54:01;;;;;;;6.78;4.35;;;;;;;;;;1671504;85;21112;-74
2022/03/01 09:56:27;;;;;;;6.17;3.60;;;;;;;;;;1676922;85;21595;-74
2022/03/01 09:58:53;;;;;;;6.90;3.60;;;;;;;;;;1668297;85;21068;-73
2022/03/01 10:01:19;;;;;;;6.05;3.80;;;;;;;;;;1674975;84;21604;-74
2022/03/01 10:03:49;;;;;;;5.53;3.00;;;;;;;;;;1672722;85;20994;-72
2022/03/01 10:06:18;;;;;;;6.40;3.50;;;;;;;;;;1674477;85;21541;-73
2022/03/01 10:08:44;;;;;;;7.60;3.80;;;;;;;;;;1676528;85;20986;-73
2022/03/01 10:11:10;;;;;;;5.42;3.42;;;;;;;;;;1672320;85;21024;-72
2022/03/01 10:13:38;;;;;;;7.80;3.90;;;;;;;;;;1672154;85;21580;-72
2022/03/01 10:16:08;;;;;;;6.30;3.70;;;;;;;;;;1673505;85;21512;-72
2022/03/01 10:18:35;;;;;;;4.90;3.60;;;;;;;;;;1668939;84;21077;-70
2022/03/01 10:21:11;;;;;;;5.25;3.52;;;;;;;;;;1667914;85;21085;-74
2022/03/01 10:23:38;;;;;;;5.83;3.47;;;;;;;;;;1669863;85;21058;-72
2022/03/01 10:26:06;;;;;;;5.58;3.20;;;;;;;;;;1671400;85;21048;-72
2022/03/01 10:28:33;;;;;;;6.90;3.72;;;;;;;;;;1675669;84;21100;-72
2022/03/01 10:31:01;;;;;;;6.33;3.60;;;;;;;;;;1679319;85;21015;-72
2022/03/01 10:33:28;;;;;;;6.33;3.83;;;;;;;;;;1649467;85;21071;-72
2022/03/01 10:35:57;;;;;;;8.60;3.58;;;;;;;;;;1693930;84;21733;-72
2022/03/01 10:38:24;;;;;;;5.92;3.37;;;;;;;;;;1674690;83;21094;-72
2022/03/01 10:41:02;;;;;;;6.35;3.72;;;;;;;;;;1697123;84;21522;-73
2022/03/01 10:43:28;;;;;;;6.50;3.25;;;;;;;;;;1700960;84;21467;-72
2022/03/01 10:45:56;;;;;;;5.00;3.25;;;;;;;;;;1695332;83;21019;-72
2022/03/01 10:48:24;;;;;;;5.78;3.47;;;;;;;;;;1682164;84;21015;-73
2022/03/01 10:50:58;;;;;;;6.95;3.90;;;;;;;;;;1656516;85;21035;-71
2022/03/01 10:53:28;;;;;;;7.58;4.40;;;;;;;;;;1682416;84;21039;-71
2022/03/01 10:55:56;;;;;;;5.37;3.05;;;;;;;;;;1685324;85;21087;-72
2022/03/01 10:58:22;;;;;;;6.22;3.35;;;;;;;;;;1689402;84;21048;-71
2022/03/01 11:00:48;;;;;;;4.90;3.40;;;;;;;;;;1693766;84;21017;-73
2022/03/01 11:03:16;;;;;;;4.95;3.22;;;;;;;;;;1699872;84;21082;-71
2022/03/01 11:05:43;;;;;;;6.60;4.15;;;;;;;;;;1671084;86;21747;-72
2022/03/01 11:08:10;;;;;;;7.65;4.67;;;;;;;;;;1685150;84;21071;-72
2022/03/01 11:10:38;;;;;;;9.68;4.65;;;;;;;;;;1686867;85;21071;-72
2022/03/01 11:13:04;;;;;;;7.47;3.72;;;;;;;;;;1685836;84;20977;-72
2022/03/01 11:15:49;;;;;;;6.37;4.10;;;;;;;;;;1658087;84;21037;-73
2022/03/01 11:18:23;;;;;;;7.45;3.75;;;;;;;;;;1671649;84;21080;-71
2022/03/01 11:20:49;;;;;;;6.40;3.98;;;;;;;;;;1688862;84;22145;-73
2022/03/01 11:23:15;;;;;;;6.95;3.90;;;;;;;;;;1687983;84;21127;-72
2022/03/01 11:25:42;;;;;;;7.33;4.20;;;;;;;;;;1673890;84;21082;-75
2022/03/01 11:28:10;;;;;;;7.35;4.10;;;;;;;;;;1705442;83;21773;-75
2022/03/01 11:30:38;;;;;;;8.75;4.70;;;;;;;;;;1718477;83;20986;-75
2022/03/01 11:33:04;;;;;;;7.05;4.15;;;;;;;;;;1716826;82;21054;-77
2022/03/01 11:35:32;;;;;;;8.33;4.97;;;;;;;;;;1716362;83;21068;-75
2022/03/01 11:38:06;;;;;;;7.83;4.47;;;;;;;;;;1706077;83;21009;-76
2022/03/01 11:40:33;;;;;;;8.75;4.58;;;;;;;;;;1717058;83;21033;-75
2022/03/01 11:43:07;;;;;;;7.75;4.37;;;;;;;;;;1718097;82;21033;-75
2022/03/01 11:45:34;;;;;;;7.28;4.25;;;;;;;;;;1698878;83;21049;-76
2022/03/01 11:48:04;;;;;;;8.38;4.58;;;;;;;;;;1730422;83;21038;-74
2022/03/01 11:50:31;;;;;;;7.80;4.30;;;;;;;;;;1712623;83;21057;-75
2022/03/01 11:52:58;;;;;;;9.20;4.28;;;;;;;;;;1706604;83;21068;-74
2022/03/01 11:55:45;;;;;;;9.83;5.20;;;;;;;;;;1727591;83;21625;-76
2022/03/01 11:58:11;;;;;;;8.40;4.62;;;;;;;;;;1718289;83;21041;-75
2022/03/01 12:00:39;;;;;;;6.20;3.50;;;;;;;;;;1694606;83;21583;-73
2022/03/01 12:03:05;;;;;;;8.30;3.92;;;;;;;;;;1708117;83;21079;-74
2022/03/01 12:05:31;;;;;;;9.20;4.78;;;;;;;;;;1706262;83;21025;-74
2022/03/01 12:07:57;;;;;;;9.15;4.45;;;;;;;;;;1693372;83;21064;-75
2022/03/01 12:10:25;;;;;;;9.85;4.20;;;;;;;;;;1713138;83;21120;-77
2022/03/01 12:12:54;;;;;;;9.13;4.42;;;;;;;;;;1691410;83;21534;-75
2022/03/01 12:15:28;;;;;;;7.95;4.40;;;;;;;;;;1664377;86;21082;-73
2022/03/01 12:17:54;;;;;;;7.97;4.30;;;;;;;;;;1664641;86;21086;-75
2022/03/01 12:20:21;;;;;;;8.98;4.08;;;;;;;;;;1688868;83;21080;-74
2022/03/01 12:22:55;;;;;;;10.72;5.22;;;;;;;;;;1712329;84;21587;-74
2022/03/01 12:25:29;;;;;;;7.67;4.25;;;;;;;;;;1715056;83;21029;-75
2022/03/01 12:27:59;;;;;;;7.65;4.00;;;;;;;;;;1665579;85;21122;-73
2022/03/01 12:30:25;;;;;;;10.15;5.53;;;;;;;;;;1701717;84;21221;-75
2022/03/01 12:32:52;;;;;;;9.85;5.45;;;;;;;;;;1705402;84;21052;-73
2022/03/01 12:35:20;;;;;;;8.68;4.70;;;;;;;;;;1725662;82;21086;-73
2022/03/01 12:37:46;;;;;;;9.73;5.47;;;;;;;;;;1725251;83;21064;-73
2022/03/01 12:40:12;;;;;;;8.20;5.03;;;;;;;;;;1722154;83;21009;-74
2022/03/01 12:42:38;;;;;;;11.83;5.22;;;;;;;;;;1714519;83;21067;-75
2022/03/01 12:45:04;;;;;;;9.58;4.72;;;;;;;;;;1728159;81;21592;-74
2022/03/01 12:47:31;;;;;;;9.63;5.10;;;;;;;;;;1727428;82;21719;-74
2022/03/01 12:49:59;;;;;;;10.60;5.47;;;;;;;;;;1694628;84;21679;-74
2022/03/01 12:52:28;;;;;;;8.85;4.97;;;;;;;;;;1678010;84;21055;-74
2022/03/01 12:54:54;;;;;;;9.40;4.62;;;;;;;;;;1686136;84;21127;-74
2022/03/01 12:57:20;;;;;;;9.18;4.97;;;;;;;;;;1688265;84;21094;-74
2022/03/01 12:59:47;;;;;;;11.28;5.35;;;;;;;;;;1722025;83;20983;-73
2022/03/01 13:02:16;;;;;;;9.45;4.33;;;;;;;;;;1724590;83;21002;-73
2022/03/01 13:04:43;;;;;;;9.28;4.75;;;;;;;;;;1701178;84;21045;-74
2022/03/01 13:07:09;;;;;;;9.38;4.75;;;;;;;;;;1706759;83;21049;-74
2022/03/01 13:09:37;;;;;;;7.83;4.67;;;;;;;;;;1723285;83;21096;-75
2022/03/01 13:12:03;;;;;;;7.70;4.50;;;;;;;;;;1655974;85;21023;-74
2022/03/01 13:14:29;;;;;;;9.55;4.70;;;;;;;;;;1721108;83;21041;-74
2022/03/01 13:16:56;;;;;;;8.53;4.50;;;;;;;;;;1718325;83;21082;-74
2022/03/01 13:19:27;;;;;;;9.23;3.85;;;;;;;;;;1726469;81;21146;-73
2022/03/01 13:21:55;;;;;;;7.92;4.87;;;;;;;;;;1728128;82;21032;-74
2022/03/01 13:24:32;;;;;;;6.50;3.90;;;;;;;;;;1702531;83;21501;-76
2022/03/01 13:26:59;;;;;;;8.63;4.58;;;;;;;;;;1725466;83;21072;-74
2022/03/01 13:29:26;;;;;;;10.82;4.75;;;;;;;;;;1720539;82;21044;-74
2022/03/01 13:32:06;;;;;;;6.87;4.30;;;;;;;;;;1729851;83;21094;-74
2022/03/01 13:34:34;;;;;;;9.30;5.05;;;;;;;;;;1729976;83;21081;-76
2022/03/01 13:37:07;;;;;;;8.45;4.85;;;;;;;;;;1729518;83;21046;-75
2022/03/01 13:39:37;;;;;;;10.57;4.73;;;;;;;;;;1702990;83;21002;-75
2022/03/01 13:42:10;;;;;;;9.60;5.05;;;;;;;;;;1682940;83;21058;-74
2022/03/01 13:44:43;;;;;;;8.35;4.55;;;;;;;;;;1702228;84;21055;-74
2022/03/01 13:47:10;;;;;;;8.93;4.87;;;;;;;;;;1727913;82;21020;-75
2022/03/01 13:49:37;;;;;;;9.78;4.65;;;;;;;;;;1745435;80;21018;-75
2022/03/01 13:52:08;;;;;;;10.38;5.08;;;;;;;;;;1686546;84;21004;-75
2022/03/01 13:54:36;;;;;;;8.68;4.20;;;;;;;;;;1680073;85;21066;-75
2022/03/01 13:57:03;;;;;;;10.40;5.40;;;;;;;;;;1692873;84;21094;-74
2022/03/01 13:59:29;;;;;;;8.83;4.40;;;;;;;;;;1701973;84;21043;-74
2022/03/01 14:01:55;;;;;;;11.20;5.62;;;;;;;;;;1713558;84;21080;-76
2022/03/01 14:04:24;;;;;;;10.28;5.45;;;;;;;;;;1709917;84;21564;-75
2022/03/01 14:06:51;;;;;;;9.85;5.45;;;;;;;;;;1687976;84;21068;-76
2022/03/01 14:09:17;;;;;;;10.95;5.03;;;;;;;;;;1676011;84;21087;-75
2022/03/01 14:11:57;;;;;;;10.95;5.30;;;;;;;;;;1657494;85;21096;-76
2022/03/01 14:14:24;;;;;;;9.33;5.28;;;;;;;;;;1668578;85;21088;-75
2022/03/01 14:16:51;;;;;;;9.38;5.22;;;;;;;;;;1696124;84;21051;-76
2022/03/01 14:19:18;;;;;;;10.38;4.80;;;;;;;;;;1669359;84;21132;-74
2022/03/01 14:21:45;;;;;;;9.40;4.78;;;;;;;;;;1677400;83;21081;-75
2022/03/01 14:24:11;;;;;;;9.73;5.83;;;;;;;;;;1662461;85;21024;-75
2022/03/01 14:26:38;;;;;;;9.45;5.47;;;;;;;;;;1664341;86;21048;-74
2022/03/01 14:29:05;;;;;;;10.78;5.35;;;;;;;;;;1654527;86;21123;-75
2022/03/01 14:31:33;;;;;;;10.60;5.35;;;;;;;;;;1665182;85;21079;-74
2022/03/01 14:33:58;;;;;;;11.90;5.65;;;;;;;;;;1677053;85;21043;-75
2022/03/01 14:36:24;;;;;;;12.15;6.12;;;;;;;;;;1666795;86;21583;-75
2022/03/01 14:38:51;;;;;;;10.32;5.10;;;;;;;;;;1666874;86;21544;-74
2022/03/01 14:41:21;;;;;;;10.63;5.72;;;;;;;;;;1676742;85;21043;-74
2022/03/01 14:43:51;;;;;;;8.18;4.50;;;;;;;;;;1665503;86;21044;-75
2022/03/01 14:46:19;;;;;;;11.20;4.80;;;;;;;;;;1664602;86;21653;-73